Time;durP1;ratioP1;P1;durP2;ratioP2;P2;SDS_P1;SDS_P2;PMS_P1;PMS_P2;Temp;Humidity;BMP_temperature;BMP_pressure;BME280_temperature;BME280_humidity;BME280_pressure;Samples;Min_cycle;Max_cycle;Signal;HPM_P1;HPM_P2
2021/08/17 00:00:29;;;;;;;13.87;9.23;;;;;;;24.93;51.49;99564.94;3454962;28;20042;-76
2021/08/17 00:02:10;;;;;;;18.10;9.68;;;;;;;24.94;51.59;99569.31;3455837;28;20417;-75
2021/08/17 00:03:50;;;;;;;15.63;9.63;;;;;;;24.91;51.64;99558.97;3455926;28;20045;-75
2021/08/17 00:05:31;;;;;;;13.23;9.17;;;;;;;24.93;51.62;99564.94;3456339;28;20073;-75
2021/08/17 00:07:12;;;;;;;14.90;8.60;;;;;;;24.91;51.67;99567.13;3456093;28;20050;-75
2021/08/17 00:08:53;;;;;;;16.37;9.50;;;;;;;24.92;51.72;99560.59;3455950;28;20096;-75
2021/08/17 00:10:34;;;;;;;17.70;9.03;;;;;;;24.92;51.94;99561.41;3469627;28;20337;-75
2021/08/17 00:12:15;;;;;;;19.67;9.57;;;;;;;24.89;51.77;99562.00;3469675;28;20063;-76
2021/08/17 00:13:56;;;;;;;18.35;10.45;;;;;;;24.87;51.93;99555.22;3467356;28;20049;-74
2021/08/17 00:15:37;;;;;;;15.67;10.30;;;;;;;24.87;51.92;99561.47;3469050;28;20038;-75
2021/08/17 00:17:17;;;;;;;21.73;9.70;;;;;;;24.84;51.96;99562.06;3467294;28;20049;-74
2021/08/17 00:18:58;;;;;;;25.70;10.83;;;;;;;24.83;52.27;99559.63;3455769;28;20092;-74
2021/08/17 00:20:39;;;;;;;19.97;9.50;;;;;;;24.82;52.13;99558.81;3455285;28;20046;-75
2021/08/17 00:22:22;;;;;;;15.53;9.30;;;;;;;24.83;52.06;99554.16;3455669;28;20081;-75
2021/08/17 00:24:04;;;;;;;19.00;8.65;;;;;;;24.84;52.14;99555.81;3455006;28;20296;-74
2021/08/17 00:25:45;;;;;;;24.48;9.85;;;;;;;24.87;52.54;99558.75;3456277;28;20108;-75
2021/08/17 00:27:26;;;;;;;15.68;9.23;;;;;;;24.87;52.26;99556.03;3455651;28;20049;-75
2021/08/17 00:29:06;;;;;;;17.80;9.57;;;;;;;24.89;52.09;99558.47;3456017;28;20050;-75
2021/08/17 00:30:47;;;;;;;13.90;8.77;;;;;;;24.90;52.23;99549.16;3456125;28;20413;-75
2021/08/17 00:32:28;;;;;;;19.77;11.07;;;;;;;24.87;52.29;99556.03;3455711;28;20053;-74
2021/08/17 00:34:09;;;;;;;14.97;9.93;;;;;;;24.86;52.42;99550.84;3455885;28;20060;-75
2021/08/17 00:35:50;;;;;;;19.03;10.43;;;;;;;24.83;52.17;99549.50;3467909;28;20532;-74
2021/08/17 00:37:31;;;;;;;18.45;10.40;;;;;;;24.84;52.34;99550.34;3469322;28;20095;-75
2021/08/17 00:39:12;;;;;;;18.43;9.93;;;;;;;24.83;52.74;99560.41;3482291;28;20600;-75
2021/08/17 00:40:53;;;;;;;19.63;11.13;;;;;;;24.82;52.46;99550.63;3472080;28;20539;-75
2021/08/17 00:42:45;;;;;;;17.58;10.20;;;;;;;24.83;52.52;99554.16;3469709;28;20042;-75
2021/08/17 00:44:27;;;;;;;15.40;9.45;;;;;;;24.81;52.58;99551.75;3467454;28;20140;-75
2021/08/17 00:46:08;;;;;;;20.30;10.68;;;;;;;24.80;52.57;99550.09;3455956;28;20096;-76
2021/08/17 00:47:50;;;;;;;16.42;9.65;;;;;;;24.74;52.69;99549.38;3454891;28;20037;-75
2021/08/17 00:49:32;;;;;;;18.17;10.07;;;;;;;24.75;52.56;99544.72;3455538;28;20052;-75
2021/08/17 00:51:12;;;;;;;;;;;;;;;24.83;52.52;99554.16;3456601;28;20545;-75
2021/08/17 00:52:54;;;;;;;19.80;10.10;;;;;;;24.75;52.71;99556.44;3455631;28;19921;-75
2021/08/17 00:54:42;;;;;;;21.40;10.50;;;;;;;24.72;52.78;99548.84;3458156;28;20099;-74
2021/08/17 00:56:23;;;;;;;17.58;10.02;;;;;;;24.69;53.28;99546.72;3469309;28;20132;-76
2021/08/17 00:58:03;;;;;;;23.30;10.17;;;;;;;24.66;53.14;99550.03;3469383;28;20042;-76
2021/08/17 00:59:44;;;;;;;21.93;10.57;;;;;;;24.67;53.26;99545.38;3470417;28;20041;-74
2021/08/17 01:01:25;;;;;;;19.70;11.83;;;;;;;24.66;53.32;99550.03;3471067;28;20041;-74
2021/08/17 01:03:05;;;;;;;20.23;9.77;;;;;;;24.66;53.55;99555.47;3471659;28;20056;-75
2021/08/17 01:04:46;;;;;;;19.37;9.97;;;;;;;24.67;53.25;99551.63;3470280;28;20080;-75
2021/08/17 01:06:32;;;;;;;22.70;9.40;;;;;;;24.67;53.34;99539.91;3471939;28;20640;-75
2021/08/17 01:08:12;;;;;;;17.50;9.40;;;;;;;24.68;53.40;99542.38;3472005;28;20110;-75
2021/08/17 01:09:53;;;;;;;24.70;11.27;;;;;;;24.67;53.37;99534.47;3472026;28;20037;-76
2021/08/17 01:11:36;;;;;;;20.30;10.77;;;;;;;24.65;53.42;99532.03;3471857;28;20578;-76
2021/08/17 01:13:17;;;;;;;13.77;8.75;;;;;;;24.65;53.24;99536.66;3471604;28;20068;-74
2021/08/17 01:14:58;;;;;;;20.70;11.03;;;;;;;24.66;53.68;99533.66;3470572;28;20496;-75
2021/08/17 01:16:40;;;;;;;16.03;8.83;;;;;;;24.66;53.50;99525.50;3471589;28;20099;-74
2021/08/17 01:18:20;;;;;;;17.63;10.40;;;;;;;24.68;53.43;99536.91;3471282;28;20033;-75
2021/08/17 01:20:01;;;;;;;15.03;9.53;;;;;;;24.69;53.48;99538.53;3471760;28;20045;-75
2021/08/17 01:21:42;;;;;;;18.53;9.73;;;;;;;24.68;53.65;99541.53;3471753;28;20050;-76
2021/08/17 01:23:30;;;;;;;12.20;8.97;;;;;;;24.70;53.75;99544.78;3471605;28;20530;-75
2021/08/17 01:25:12;;;;;;;14.63;8.65;;;;;;;24.73;53.81;99550.47;3469135;28;20042;-76
2021/08/17 01:26:53;;;;;;;13.48;9.05;;;;;;;24.74;53.91;99551.28;3458091;28;20057;-74
2021/08/17 01:28:33;;;;;;;17.07;10.07;;;;;;;24.73;53.63;99550.47;3457310;28;20133;-75
2021/08/17 01:30:15;;;;;;;20.43;10.17;;;;;;;24.71;53.52;99549.97;3457722;28;20417;-75
2021/08/17 01:31:57;;;;;;;20.13;10.27;;;;;;;24.67;54.07;99551.63;3457856;28;20046;-75
2021/08/17 01:33:37;;;;;;;;;;;;;;;24.73;53.59;99555.94;3458313;28;20053;-75
2021/08/17 01:35:18;;;;;;;19.83;10.75;;;;;;;24.67;53.88;99546.19;3461080;28;19921;-76
2021/08/17 01:36:58;;;;;;;20.40;10.73;;;;;;;24.65;53.89;99542.94;3471736;28;20045;-76
2021/08/17 01:38:47;;;;;;;18.80;10.80;;;;;;;24.65;54.11;99537.47;3471531;28;20132;-75
2021/08/17 01:40:28;;;;;;;18.23;10.48;;;;;;;24.63;54.02;99538.88;3471828;28;20057;-73
2021/08/17 01:42:10;;;;;;;15.57;10.52;;;;;;;24.61;54.30;99525.56;3471660;28;20140;-75
2021/08/17 01:43:51;;;;;;;20.00;10.20;;;;;;;24.61;54.01;99527.47;3471412;28;20045;-74
2021/08/17 01:45:32;;;;;;;15.93;9.80;;;;;;;24.58;54.10;99523.41;3470747;28;20144;-74
2021/08/17 01:47:12;;;;;;;20.73;10.33;;;;;;;24.60;54.14;99529.38;3471583;28;20436;-74
2021/08/17 01:48:53;;;;;;;17.97;10.43;;;;;;;24.60;54.12;99534.81;3471092;28;20504;-75
2021/08/17 01:50:34;;;;;;;20.53;10.67;;;;;;;24.61;54.43;99541.09;3471508;28;20041;-74
2021/08/17 01:52:14;;;;;;;18.13;10.73;;;;;;;24.58;54.38;99542.50;3471473;28;20459;-76
2021/08/17 01:53:55;;;;;;;15.60;9.43;;;;;;;24.59;54.56;99558.53;3471376;28;20055;-75
2021/08/17 01:55:36;;;;;;;16.47;9.53;;;;;;;24.62;55.22;99576.22;3470871;28;20053;-75
2021/08/17 01:57:17;;;;;;;16.03;9.50;;;;;;;24.64;55.09;99571.28;3471253;28;20491;-74
2021/08/17 01:58:58;;;;;;;11.40;9.13;;;;;;;24.65;55.10;99558.47;3471013;28;20500;-75
2021/08/17 02:00:38;;;;;;;13.97;10.20;;;;;;;24.69;54.72;99557.59;3471295;28;20037;-74
2021/08/17 02:02:19;;;;;;;17.77;9.57;;;;;;;24.67;54.70;99575.34;3471429;28;20283;-75
2021/08/17 02:04:00;;;;;;;17.33;8.87;;;;;;;24.68;54.93;99591.44;3471416;28;20091;-75
2021/08/17 02:05:40;;;;;;;13.13;9.30;;;;;;;24.70;54.48;99588.41;3469241;28;20047;-74
2021/08/17 02:07:21;;;;;;;13.00;9.53;;;;;;;24.63;54.65;99566.97;3471135;28;20420;-74
2021/08/17 02:09:02;;;;;;;16.53;10.70;;;;;;;24.65;55.00;99581.09;3471156;28;20038;-75
2021/08/17 02:10:43;;;;;;;14.68;9.02;;;;;;;24.65;54.77;99578.34;3471136;28;20452;-74
2021/08/17 02:12:23;;;;;;;13.80;8.93;;;;;;;24.65;54.67;99585.72;3470957;28;20049;-75
2021/08/17 02:14:04;;;;;;;17.33;9.47;;;;;;;24.64;54.82;99595.81;3471248;28;20452;-75
2021/08/17 02:15:46;;;;;;;17.98;10.07;;;;;;;24.64;55.02;99589.56;3468329;28;20088;-74
2021/08/17 02:17:27;;;;;;;16.13;10.60;;;;;;;24.64;55.11;99590.38;3457201;28;20042;-75
2021/08/17 02:19:07;;;;;;;11.57;9.40;;;;;;;24.65;55.11;99589.25;3457250;28;20048;-75
2021/08/17 02:20:48;;;;;;;16.77;9.27;;;;;;;24.64;54.91;99601.28;3456630;28;20487;-75
2021/08/17 02:22:29;;;;;;;13.90;9.17;;;;;;;24.62;55.27;99597.22;3456934;28;20041;-75
2021/08/17 02:24:10;;;;;;;11.93;9.50;;;;;;;24.62;54.83;99602.66;3457613;28;20054;-76
2021/08/17 02:25:51;;;;;;;12.90;9.47;;;;;;;24.61;55.21;99622.84;3457153;28;20038;-75
2021/08/17 02:27:36;;;;;;;12.70;9.30;;;;;;;24.62;55.14;99617.09;3470568;28;20530;-75
2021/08/17 02:29:17;;;;;;;11.23;9.02;;;;;;;24.60;54.76;99622.03;3470994;28;20049;-76
2021/08/17 02:30:57;;;;;;;14.33;10.03;;;;;;;24.56;54.97;99621.81;3470751;28;20428;-75
2021/08/17 02:32:38;;;;;;;20.03;10.23;;;;;;;24.56;54.69;99626.44;3469561;28;20065;-75
2021/08/17 02:34:18;;;;;;;21.07;10.70;;;;;;;24.53;55.10;99627.84;3470529;28;20045;-76
2021/08/17 02:35:59;;;;;;;14.80;9.83;;;;;;;24.54;55.00;99628.63;3470668;28;20064;-76
2021/08/17 02:37:40;;;;;;;17.07;10.57;;;;;;;24.53;55.18;99621.56;3457381;28;20045;-76
2021/08/17 02:39:21;;;;;;;;;;;;;;;24.59;54.68;99626.66;3456382;28;20631;-74
2021/08/17 02:41:02;;;;;;;12.32;8.05;;;;;;;24.56;54.90;99631.91;3456863;28;19917;-76
2021/08/17 02:42:43;;;;;;;14.20;9.13;;;;;;;24.53;55.00;99625.09;3457086;28;20042;-74
2021/08/17 02:44:24;;;;;;;12.43;9.57;;;;;;;24.54;54.71;99632.16;3455989;28;20320;-75
2021/08/17 02:46:06;;;;;;;14.80;9.17;;;;;;;24.53;55.04;99637.94;3456752;28;20053;-74
2021/08/17 02:47:47;;;;;;;15.50;10.15;;;;;;;24.52;55.12;99647.19;3456953;28;20541;-75
2021/08/17 02:49:28;;;;;;;18.87;9.33;;;;;;;24.52;55.13;99655.34;3456708;28;20068;-74
2021/08/17 02:51:09;;;;;;;;;;;;;;;24.55;54.74;99652.88;3457300;28;20096;-75
2021/08/17 02:52:50;;;;;;;13.07;8.52;;;;;;;24.51;54.76;99656.47;3456925;28;20350;-74
2021/08/17 02:54:32;;;;;;;19.42;9.27;;;;;;;24.50;54.79;99654.81;3455982;28;20072;-74
2021/08/17 02:56:13;;;;;;;11.75;8.95;;;;;;;24.47;54.71;99660.84;3459843;28;20041;-75
2021/08/17 02:57:56;;;;;;;15.57;9.40;;;;;;;24.45;54.73;99663.06;3470263;28;20041;-74
2021/08/17 02:59:37;;;;;;;19.48;9.25;;;;;;;24.45;55.07;99663.06;3470482;28;20140;-75
2021/08/17 03:01:17;;;;;;;9.73;8.27;;;;;;;24.44;55.21;99667.66;3470573;28;20586;-75
2021/08/17 03:02:58;;;;;;;12.73;8.63;;;;;;;24.45;55.26;99673.97;3470419;28;20045;-76
2021/08/17 03:04:40;;;;;;;12.33;8.30;;;;;;;24.44;55.08;99669.56;3470350;28;20046;-74
2021/08/17 03:06:20;;;;;;;13.13;9.02;;;;;;;24.47;55.28;99679.94;3465057;28;20034;-75
2021/08/17 03:08:04;;;;;;;11.17;8.27;;;;;;;24.46;55.13;99686.50;3456538;28;20037;-75
2021/08/17 03:09:45;;;;;;;12.40;8.15;;;;;;;24.48;55.56;99685.09;3456789;28;20050;-76
2021/08/17 03:11:25;;;;;;;14.00;8.63;;;;;;;24.47;55.43;99688.09;3456639;28;20390;-74
2021/08/17 03:13:07;;;;;;;9.53;7.70;;;;;;;24.47;55.44;99678.00;3456432;28;20064;-75
2021/08/17 03:14:48;;;;;;;11.43;8.05;;;;;;;24.51;55.26;99684.53;3456667;28;20046;-75
2021/08/17 03:16:29;;;;;;;10.80;8.00;;;;;;;24.52;55.21;99683.41;3463781;28;20076;-76
2021/08/17 03:18:10;;;;;;;9.18;7.25;;;;;;;24.56;55.35;99681.75;3469865;28;20037;-76
2021/08/17 03:19:51;;;;;;;8.77;7.43;;;;;;;24.59;55.17;99685.81;3468513;28;20128;-76
2021/08/17 03:21:33;;;;;;;10.97;9.33;;;;;;;24.58;55.16;99673.31;3469957;28;20060;-76
2021/08/17 03:23:16;;;;;;;13.68;8.50;;;;;;;24.56;55.19;99670.84;3469858;28;20052;-76
2021/08/17 03:24:57;;;;;;;11.52;8.13;;;;;;;24.61;55.16;99677.38;3470150;28;20045;-75
2021/08/17 03:26:38;;;;;;;12.10;8.47;;;;;;;24.63;55.17;99677.88;3461207;28;20095;-75
2021/08/17 03:28:18;;;;;;;17.57;9.37;;;;;;;24.64;55.03;99680.31;3456080;28;20124;-75
2021/08/17 03:29:59;;;;;;;15.33;8.80;;;;;;;24.66;54.97;99678.13;3457540;28;20037;-75
2021/08/17 03:31:40;;;;;;;13.30;8.75;;;;;;;24.67;54.91;99687.91;3456252;28;20038;-75
2021/08/17 03:33:21;;;;;;;13.43;7.90;;;;;;;24.72;55.19;99690.59;3457573;28;20034;-75
2021/08/17 03:35:01;;;;;;;12.97;8.70;;;;;;;24.73;55.03;99692.22;3456691;28;20050;-75
2021/08/17 03:36:42;;;;;;;15.00;7.87;;;;;;;24.73;55.04;99689.50;3455666;28;20412;-75
2021/08/17 03:38:23;;;;;;;13.47;8.10;;;;;;;24.76;55.01;99678.00;3462066;28;20128;-76
2021/08/17 03:40:06;;;;;;;11.37;7.53;;;;;;;24.78;55.57;99684.00;3470334;28;20045;-75
2021/08/17 03:41:47;;;;;;;15.45;7.82;;;;;;;24.81;55.20;99672.50;3470092;28;20045;-76
2021/08/17 03:43:28;;;;;;;13.20;7.60;;;;;;;24.83;55.30;99682.28;3464860;28;20049;-74
2021/08/17 03:45:14;;;;;;;13.13;7.45;;;;;;;24.83;54.63;99679.56;3469669;28;20045;-77
2021/08/17 03:47:04;;;;;;;14.52;7.78;;;;;;;24.80;54.78;99673.59;3469237;28;20519;-75
2021/08/17 03:48:48;;;;;;;13.35;7.53;;;;;;;24.83;55.07;99676.84;3466551;28;20121;-76
2021/08/17 03:50:35;;;;;;;12.20;7.93;;;;;;;24.84;54.49;99684.75;3456333;28;20054;-75
2021/08/17 03:52:16;;;;;;;10.98;7.43;;;;;;;24.85;54.69;99682.81;3456515;28;20038;-75
2021/08/17 03:53:57;;;;;;;13.50;7.23;;;;;;;24.83;54.36;99679.56;3455161;28;20115;-74
2021/08/17 03:55:40;;;;;;;10.90;7.00;;;;;;;24.89;54.70;99683.88;3453265;28;20050;-75
2021/08/17 03:57:21;;;;;;;11.27;6.67;;;;;;;24.91;54.41;99684.38;3456447;28;20579;-75
2021/08/17 03:59:46;;;;;;;11.48;8.07;;;;;;;24.98;53.91;99682.13;3456453;28;20073;-75
2021/08/17 04:01:26;;;;;;;11.65;6.72;;;;;;;25.05;53.87;99687.25;3461852;28;20536;-74
2021/08/17 04:03:07;;;;;;;9.67;6.33;;;;;;;25.07;53.94;99676.84;3469874;28;20053;-76
2021/08/17 04:04:49;;;;;;;9.52;6.85;;;;;;;25.12;54.08;99683.06;3469780;28;20041;-77
2021/08/17 04:06:30;;;;;;;9.85;7.40;;;;;;;25.18;54.07;99673.75;3469716;28;20038;-75
2021/08/17 04:08:10;;;;;;;11.90;7.00;;;;;;;25.25;54.19;99676.13;3469578;28;20519;-76
2021/08/17 04:09:51;;;;;;;9.75;6.57;;;;;;;25.32;54.05;99670.28;3469674;28;20459;-75
2021/08/17 04:11:32;;;;;;;9.70;6.43;;;;;;;25.37;53.75;99667.50;3469514;28;20415;-75
2021/08/17 04:13:13;;;;;;;8.80;5.77;;;;;;;25.41;53.68;99663.09;3469446;28;20076;-76
2021/08/17 04:14:53;;;;;;;10.13;6.13;;;;;;;25.46;53.83;99663.03;3467787;28;20043;-76
2021/08/17 04:16:34;;;;;;;11.10;6.43;;;;;;;25.49;53.67;99659.69;3464884;28;20046;-76
2021/08/17 04:18:15;;;;;;;7.70;6.07;;;;;;;25.50;53.19;99664.03;3465818;28;20048;-76
2021/08/17 04:19:55;;;;;;;10.07;7.30;;;;;;;25.51;52.74;99665.69;3469342;28;20042;-75
2021/08/17 04:21:36;;;;;;;12.63;7.17;;;;;;;25.51;53.34;99659.41;3465258;28;20106;-76
2021/08/17 04:23:17;;;;;;;8.27;6.43;;;;;;;25.51;52.88;99662.94;3455547;28;20138;-75
2021/08/17 04:24:58;;;;;;;9.00;6.07;;;;;;;25.51;53.16;99679.31;3454718;28;20042;-75
2021/08/17 04:26:38;;;;;;;8.47;6.13;;;;;;;25.49;52.60;99676.06;3455933;28;20038;-76
2021/08/17 04:28:21;;;;;;;11.77;5.87;;;;;;;25.45;52.93;99677.75;3456026;28;20048;-75
2021/08/17 04:30:04;;;;;;;9.30;6.13;;;;;;;25.42;52.34;99670.16;3468461;28;20044;-76
2021/08/17 04:31:45;;;;;;;11.95;5.80;;;;;;;25.40;52.31;99665.00;3456722;28;20133;-76
2021/08/17 04:33:26;;;;;;;7.43;6.33;;;;;;;25.41;52.71;99679.47;3463467;28;20046;-75
2021/08/17 04:35:07;;;;;;;7.80;6.10;;;;;;;25.39;52.92;99678.94;3464118;28;20136;-75
2021/08/17 04:36:49;;;;;;;10.75;6.15;;;;;;;25.39;52.82;99670.75;3461371;28;20065;-75
2021/08/17 04:38:31;;;;;;;8.48;5.32;;;;;;;25.39;52.81;99670.75;3463378;28;20045;-75
2021/08/17 04:40:12;;;;;;;7.30;5.60;;;;;;;25.38;52.55;99669.13;3463641;28;20044;-74
2021/08/17 04:41:53;;;;;;;7.82;5.60;;;;;;;25.38;52.89;99671.88;3460561;28;20076;-75
2021/08/17 04:43:34;;;;;;;8.17;5.07;;;;;;;25.38;52.69;99669.13;3469763;28;20451;-75
2021/08/17 04:45:15;;;;;;;9.80;5.37;;;;;;;25.38;52.69;99667.22;3468480;28;20038;-75
2021/08/17 04:46:56;;;;;;;11.73;5.85;;;;;;;25.38;52.47;99663.69;3465144;28;20037;-74
2021/08/17 04:48:36;;;;;;;9.80;6.00;;;;;;;25.32;52.17;99660.19;3462385;28;20037;-76
2021/08/17 04:50:19;;;;;;;12.70;5.73;;;;;;;25.32;52.26;99659.38;3468398;28;20049;-74
2021/08/17 04:52:00;;;;;;;6.72;4.72;;;;;;;25.26;51.66;99652.38;3469923;28;20068;-75
2021/08/17 04:53:40;;;;;;;12.87;4.57;;;;;;;25.21;51.68;99648.59;3464286;28;20494;-75
2021/08/17 04:55:21;;;;;;;7.87;4.87;;;;;;;25.17;51.69;99655.75;3467927;28;20516;-76
2021/08/17 04:57:02;;;;;;;10.13;5.27;;;;;;;25.14;51.73;99650.84;3466435;28;20087;-75
2021/08/17 04:58:43;;;;;;;5.80;5.20;;;;;;;25.11;51.09;99637.78;3463324;28;20132;-73
2021/08/17 05:00:26;;;;;;;7.20;4.90;;;;;;;25.09;50.90;99629.06;3460870;28;20053;-75
2021/08/17 05:02:07;;;;;;;6.53;4.65;;;;;;;25.06;51.63;99607.84;3458872;28;20517;-76
2021/08/17 05:03:47;;;;;;;6.97;4.93;;;;;;;25.03;51.95;99605.72;3464309;28;20044;-76
2021/08/17 05:05:28;;;;;;;6.23;5.10;;;;;;;24.98;52.30;99594.88;3463084;28;20129;-75
2021/08/17 05:07:10;;;;;;;7.10;4.93;;;;;;;24.94;52.56;99589.19;3462304;28;20049;-75
2021/08/17 05:08:51;;;;;;;9.87;4.60;;;;;;;24.92;52.66;99579.69;3464633;28;20033;-76
2021/08/17 05:10:31;;;;;;;4.93;4.43;;;;;;;24.88;52.84;99582.16;3468338;28;20516;-75
2021/08/17 05:12:12;;;;;;;5.53;4.40;;;;;;;24.85;53.49;99574.59;3464132;28;20037;-76
2021/08/17 05:13:53;;;;;;;7.80;4.73;;;;;;;24.80;53.57;99571.91;3464191;28;20112;-75
2021/08/17 05:15:34;;;;;;;5.47;4.87;;;;;;;24.75;53.40;99570.06;3465997;28;20045;-75
2021/08/17 05:17:14;;;;;;;5.23;4.23;;;;;;;24.73;53.64;99568.72;3464495;28;20037;-76
2021/08/17 05:18:56;;;;;;;;;;;;;;;24.76;53.07;99570.91;3442017;28;20060;-75
2021/08/17 05:20:36;;;;;;;6.32;4.40;;;;;;;24.66;53.39;99580.00;3462421;28;19921;-75
2021/08/17 05:22:17;;;;;;;5.23;4.73;;;;;;;24.61;53.64;99569.16;3460250;28;20401;-75
2021/08/17 05:23:58;;;;;;;6.33;4.17;;;;;;;24.59;53.39;99566.72;3462561;28;20092;-76
2021/08/17 05:25:40;;;;;;;6.90;4.95;;;;;;;24.60;53.66;99578.41;3462847;28;20157;-76
2021/08/17 05:27:20;;;;;;;8.37;4.53;;;;;;;24.61;53.71;99579.25;3462825;28;20045;-78
2021/08/17 05:29:01;;;;;;;7.97;5.07;;;;;;;24.58;53.28;99580.66;3468733;28;20579;-75
2021/08/17 05:30:42;;;;;;;8.53;5.17;;;;;;;24.63;53.19;99586.03;3461865;28;20080;-76
2021/08/17 05:32:23;;;;;;;8.43;4.47;;;;;;;24.61;53.49;99585.50;3463642;28;20408;-75
2021/08/17 05:34:04;;;;;;;5.72;5.10;;;;;;;24.64;53.20;99592.28;3462564;28;20048;-76
2021/08/17 05:35:44;;;;;;;5.80;4.60;;;;;;;24.63;53.32;99594.22;3464448;28;20044;-76
2021/08/17 05:37:25;;;;;;;7.40;4.50;;;;;;;24.65;53.15;99608.34;3465183;28;20033;-76
2021/08/17 05:39:06;;;;;;;5.73;4.17;;;;;;;24.63;53.50;99596.94;3463938;28;20540;-76
2021/08/17 05:40:46;;;;;;;5.70;4.80;;;;;;;24.66;53.69;99599.06;3463642;28;20041;-76
2021/08/17 05:42:27;;;;;;;6.83;4.63;;;;;;;24.69;53.94;99598.50;3459487;28;20034;-75
2021/08/17 05:44:08;;;;;;;7.63;4.87;;;;;;;24.71;54.04;99596.28;3461598;28;20045;-76
2021/08/17 05:45:48;;;;;;;6.67;4.30;;;;;;;24.73;53.67;99595.97;3445745;28;20037;-76
2021/08/17 05:47:31;;;;;;;6.17;4.77;;;;;;;24.73;53.67;99587.81;3455778;28;20043;-76
2021/08/17 05:49:12;;;;;;;7.97;4.18;;;;;;;24.72;53.67;99584.28;3459427;28;20080;-75
2021/08/17 05:50:52;;;;;;;6.80;4.70;;;;;;;24.75;53.70;99580.16;3462493;28;20034;-74
2021/08/17 05:52:33;;;;;;;9.40;4.43;;;;;;;24.76;53.54;99568.97;3461656;28;20714;-76
2021/08/17 05:54:14;;;;;;;8.37;4.83;;;;;;;24.77;53.67;99567.84;3462479;28;20083;-74
2021/08/17 05:55:55;;;;;;;7.93;4.77;;;;;;;24.81;53.42;99574.38;3463600;28;20081;-76
2021/08/17 05:57:36;;;;;;;7.10;4.83;;;;;;;24.86;53.92;99565.31;3460786;28;20052;-75
2021/08/17 05:59:17;;;;;;;6.80;4.68;;;;;;;24.90;53.37;99565.53;3461023;28;20118;-75
2021/08/17 06:00:57;;;;;;;9.60;5.40;;;;;;;24.92;52.93;99575.03;3461091;28;20513;-75
2021/08/17 06:02:39;;;;;;;8.17;5.10;;;;;;;24.97;52.78;99566.78;3469542;28;20111;-76
2021/08/17 06:04:20;;;;;;;7.95;5.38;;;;;;;25.02;53.05;99580.38;3467926;28;20073;-76
2021/08/17 06:06:00;;;;;;;10.50;4.77;;;;;;;25.08;52.52;99572.91;3465163;28;20049;-76
2021/08/17 06:07:48;;;;;;;7.80;4.53;;;;;;;25.13;52.27;99580.22;3463135;28;20037;-77
2021/08/17 06:09:29;;;;;;;7.10;4.30;;;;;;;25.16;52.34;99569.56;3462038;28;20040;-78
2021/08/17 06:11:09;;;;;;;7.37;4.30;;;;;;;25.23;52.40;99575.47;3462421;28;20068;-77
2021/08/17 06:12:50;;;;;;;7.10;4.63;;;;;;;25.28;52.24;99568.31;3463402;28;20074;-75
2021/08/17 06:14:31;;;;;;;7.00;4.50;;;;;;;25.17;51.65;99549.38;3465439;28;20548;-75
2021/08/17 06:16:11;;;;;;;5.80;4.33;;;;;;;25.38;51.98;99571.72;3461377;28;20168;-75
2021/08/17 06:17:52;;;;;;;9.17;3.93;;;;;;;25.42;52.21;99572.72;3463724;28;20038;-75
2021/08/17 06:19:33;;;;;;;11.27;4.83;;;;;;;25.48;52.13;99572.66;3467096;28;20045;-75
2021/08/17 06:21:13;;;;;;;10.60;5.13;;;;;;;25.56;51.84;99569.28;3464684;28;20462;-75
2021/08/17 06:22:54;;;;;;;11.07;4.60;;;;;;;25.59;51.26;99565.94;3469301;28;20382;-75
2021/08/17 06:24:35;;;;;;;8.37;5.27;;;;;;;25.73;50.83;99568.72;3462185;28;20095;-75
2021/08/17 06:26:16;;;;;;;6.50;4.53;;;;;;;25.83;50.73;99568.53;3445917;28;20046;-75
2021/08/17 06:27:56;;;;;;;7.73;4.70;;;;;;;25.90;50.50;99560.81;3461185;28;20033;-76
2021/08/17 06:29:37;;;;;;;5.83;4.47;;;;;;;25.95;50.27;99562.66;3460933;28;20566;-76
2021/08/17 06:31:22;;;;;;;7.53;4.30;;;;;;;25.97;50.57;99561.25;3462883;28;20501;-75
2021/08/17 06:33:03;;;;;;;7.88;5.28;;;;;;;26.01;50.19;99567.72;3463623;28;20064;-76
2021/08/17 06:34:44;;;;;;;8.23;5.05;;;;;;;26.08;49.76;99567.34;3458433;28;20034;-75
2021/08/17 06:36:24;;;;;;;11.60;5.63;;;;;;;26.16;49.68;99568.56;3466880;28;20048;-76
2021/08/17 06:38:06;;;;;;;7.43;5.63;;;;;;;26.29;50.18;99573.22;3467635;28;20531;-75
2021/08/17 06:39:47;;;;;;;7.47;4.80;;;;;;;26.44;49.87;99570.22;3469907;28;20049;-76
2021/08/17 06:41:28;;;;;;;8.87;5.23;;;;;;;26.60;49.46;99572.69;3470155;28;20129;-75
2021/08/17 06:43:09;;;;;;;9.10;4.53;;;;;;;26.76;48.75;99573.97;3463479;28;20656;-75
2021/08/17 06:44:50;;;;;;;7.00;5.23;;;;;;;26.91;48.42;99570.91;3456976;28;20038;-77
2021/08/17 06:46:30;;;;;;;20.17;5.80;;;;;;;27.11;48.42;99577.88;3468418;28;20365;-77
2021/08/17 06:48:11;;;;;;;8.40;5.53;;;;;;;27.33;48.02;99581.81;3462256;28;20037;-76
2021/08/17 06:49:52;;;;;;;11.13;5.27;;;;;;;27.53;47.77;99575.06;3460624;28;20049;-76
2021/08/17 06:51:32;;;;;;;12.27;5.50;;;;;;;27.74;47.20;99576.16;3465652;28;20046;-76
2021/08/17 06:53:13;;;;;;;18.80;5.80;;;;;;;28.00;46.61;99581.03;3459132;28;20128;-76
2021/08/17 06:54:54;;;;;;;16.23;5.03;;;;;;;28.27;46.68;99574.59;3462826;28;20037;-76
2021/08/17 06:56:34;;;;;;;11.10;5.17;;;;;;;28.53;46.21;99577.47;3461283;28;20413;-76
2021/08/17 06:58:15;;;;;;;19.00;5.93;;;;;;;28.75;45.73;99584.78;3468200;28;20033;-77
2021/08/17 06:59:56;;;;;;;12.75;5.90;;;;;;;28.92;45.29;99581.28;3468525;28;20524;-76
2021/08/17 07:01:37;;;;;;;12.43;5.37;;;;;;;29.12;44.93;99580.72;3465995;28;20069;-76
2021/08/17 07:03:18;;;;;;;18.07;5.50;;;;;;;29.27;44.55;99575.84;3464379;28;20458;-76
2021/08/17 07:04:58;;;;;;;11.83;4.97;;;;;;;29.46;44.13;99586.53;3463875;28;20042;-78
2021/08/17 07:06:39;;;;;;;8.43;5.57;;;;;;;29.54;43.35;99582.97;3460332;28;20041;-75
2021/08/17 07:08:20;;;;;;;10.27;5.13;;;;;;;29.66;43.07;99585.09;3467431;28;20037;-78
2021/08/17 07:10:01;;;;;;;7.32;5.18;;;;;;;29.77;43.38;99583.66;3459368;28;20040;-77
2021/08/17 07:11:42;;;;;;;12.38;5.20;;;;;;;29.92;42.79;99582.31;3458838;28;20044;-77
2021/08/17 07:13:24;;;;;;;15.23;6.25;;;;;;;30.11;42.68;99584.69;3461982;28;20053;-76
2021/08/17 07:15:06;;;;;;;9.77;6.03;;;;;;;30.29;42.35;99583.53;3463049;28;20064;-77
2021/08/17 07:16:46;;;;;;;;;;;;;;;30.46;42.45;99579.09;3457769;28;20038;-76
2021/08/17 07:18:27;;;;;;;11.45;5.20;;;;;;;30.55;41.73;99574.38;3466154;28;19965;-78
2021/08/17 07:20:08;;;;;;;6.75;5.57;;;;;;;30.66;41.31;99578.34;3461493;28;20042;-75
2021/08/17 07:21:49;;;;;;;9.55;5.15;;;;;;;30.75;40.88;99575.56;3461738;28;20120;-77
2021/08/17 07:23:30;;;;;;;8.33;5.30;;;;;;;30.85;40.93;99566.97;3461909;28;20397;-76
2021/08/17 07:25:11;;;;;;;10.80;5.65;;;;;;;30.95;40.96;99574.00;3461471;28;20397;-76
2021/08/17 07:26:51;;;;;;;7.50;5.07;;;;;;;31.06;40.96;99564.22;3462852;28;20473;-76
2021/08/17 07:28:32;;;;;;;14.37;5.30;;;;;;;31.18;40.50;99567.03;3457197;28;20042;-74
2021/08/17 07:30:13;;;;;;;15.03;6.57;;;;;;;31.35;40.06;99570.81;3462958;28;20303;-77
2021/08/17 07:31:54;;;;;;;;;;;;;;;31.54;40.50;99573.91;3460672;28;20041;-76
2021/08/17 07:33:35;;;;;;;10.77;6.50;;;;;;;31.62;39.85;99575.78;3467559;28;20284;-76
2021/08/17 07:35:17;;;;;;;10.10;6.33;;;;;;;31.72;39.34;99561.56;3469511;28;20048;-77
2021/08/17 07:36:58;;;;;;;13.18;6.25;;;;;;;31.84;39.03;99571.84;3469321;28;20280;-76
2021/08/17 07:38:39;;;;;;;10.77;6.30;;;;;;;31.97;39.00;99569.97;3469388;28;20072;-76
2021/08/17 07:40:20;;;;;;;14.93;6.13;;;;;;;32.13;38.55;99573.66;3468430;28;20152;-78
2021/08/17 07:42:00;;;;;;;22.48;6.85;;;;;;;32.24;38.34;99568.50;3467394;28;20035;-76
2021/08/17 07:43:42;;;;;;;9.80;6.37;;;;;;;32.39;37.98;99580.81;3477733;28;20424;-76
2021/08/17 07:45:23;;;;;;;16.60;6.72;;;;;;;32.47;38.01;99582.66;3469663;28;20283;-76
2021/08/17 07:47:03;;;;;;;10.18;5.70;;;;;;;32.61;37.85;99587.91;3469726;28;20125;-77
2021/08/17 07:48:44;;;;;;;12.00;6.15;;;;;;;32.77;37.58;99582.47;3468014;28;20037;-76
2021/08/17 07:50:25;;;;;;;9.93;5.88;;;;;;;32.92;37.04;99575.47;3469792;28;20532;-75
2021/08/17 07:52:06;;;;;;;11.63;6.43;;;;;;;33.09;36.75;99582.69;3468886;28;20045;-76
2021/08/17 07:53:47;;;;;;;;;;;;;;;33.27;37.05;99586.00;3469350;28;20038;-74